createdAt,value
2022-10-01T00:00:01.151Z,1006.77
2022-10-01T00:01:01.177Z,1006.76
2022-10-01T00:02:01.237Z,1006.74
2022-10-01T00:03:01.274Z,1006.76
2022-10-01T00:04:01.151Z,1006.69
2022-10-01T00:05:01.145Z,1006.72
2022-10-01T00:06:01.140Z,1006.75
2022-10-01T00:07:01.143Z,1006.70
2022-10-01T00:08:01.143Z,1006.70
2022-10-01T00:09:01.139Z,1006.73
2022-10-01T00:10:01.157Z,1006.72
2022-10-01T00:11:01.150Z,1006.72
2022-10-01T00:12:01.139Z,1006.73
2022-10-01T00:13:01.135Z,1006.81
2022-10-01T00:14:01.137Z,1006.75
2022-10-01T00:15:05.746Z,1006.76
2022-10-01T00:16:01.135Z,1006.75
2022-10-01T00:17:01.213Z,1006.70
2022-10-01T00:18:01.133Z,1006.75
2022-10-01T00:19:01.133Z,1006.68
2022-10-01T00:20:01.132Z,1006.72
2022-10-01T00:21:01.126Z,1006.71
2022-10-01T00:22:01.129Z,1006.68
2022-10-01T00:23:01.125Z,1006.66
2022-10-01T00:24:01.124Z,1006.64
2022-10-01T00:25:01.121Z,1006.60
2022-10-01T00:26:01.121Z,1006.62
2022-10-01T00:27:01.139Z,1006.58
2022-10-01T00:28:01.176Z,1006.55
2022-10-01T00:29:01.116Z,1006.58
2022-10-01T00:30:01.116Z,1006.57
2022-10-01T00:31:01.153Z,1006.56
2022-10-01T00:32:01.158Z,1006.55
2022-10-01T00:33:01.111Z,1006.61
2022-10-01T00:34:01.115Z,1006.58
2022-10-01T00:35:01.109Z,1006.50
2022-10-01T00:36:01.112Z,1006.57
2022-10-01T00:37:01.112Z,1006.56
2022-10-01T00:38:01.108Z,1006.52
2022-10-01T00:39:01.139Z,1006.48
2022-10-01T00:40:01.111Z,1006.44
2022-10-01T00:41:01.105Z,1006.46
2022-10-01T00:42:01.100Z,1006.47
2022-10-01T00:43:01.121Z,1006.50
2022-10-01T00:44:01.102Z,1006.46
2022-10-01T00:45:01.098Z,1006.47
2022-10-01T00:46:01.148Z,1006.46
2022-10-01T00:47:01.097Z,1006.44
2022-10-01T00:48:01.104Z,1006.44
2022-10-01T00:49:01.094Z,1006.44
2022-10-01T00:50:01.092Z,1006.42
2022-10-01T00:51:01.092Z,1006.39
2022-10-01T00:52:01.092Z,1006.40
2022-10-01T00:53:01.089Z,1006.40
2022-10-01T00:54:01.085Z,1006.42
2022-10-01T00:55:01.089Z,1006.45
2022-10-01T00:56:01.084Z,1006.50
2022-10-01T00:57:01.082Z,1006.49
2022-10-01T00:58:01.080Z,1006.48
2022-10-01T00:59:01.099Z,1006.47
2022-10-01T01:00:01.081Z,1006.38
2022-10-01T01:01:01.163Z,1006.47
2022-10-01T01:02:01.106Z,1006.44
2022-10-01T01:03:01.072Z,1006.40
2022-10-01T01:04:01.080Z,1006.43
2022-10-01T01:05:01.073Z,1006.42
2022-10-01T01:06:01.069Z,1006.40
2022-10-01T01:07:01.074Z,1006.32
2022-10-01T01:08:01.070Z,1006.33
2022-10-01T01:09:01.066Z,1006.32
2022-10-01T01:10:01.071Z,1006.32
2022-10-01T01:11:01.065Z,1006.29
2022-10-01T01:12:01.064Z,1006.29
2022-10-01T01:13:01.062Z,1006.28
2022-10-01T01:14:01.065Z,1006.31
2022-10-01T01:15:01.081Z,1006.33
2022-10-01T01:16:01.087Z,1006.31
2022-10-01T01:17:01.057Z,1006.28
2022-10-01T01:18:01.059Z,1006.31
2022-10-01T01:19:01.054Z,1006.33
2022-10-01T01:20:01.054Z,1006.32
2022-10-01T01:21:01.055Z,1006.36
2022-10-01T01:22:01.054Z,1006.31
2022-10-01T01:23:01.053Z,1006.31
2022-10-01T01:24:01.050Z,1006.30
2022-10-01T01:25:01.044Z,1006.29
2022-10-01T01:26:01.049Z,1006.27
2022-10-01T01:27:01.043Z,1006.24
2022-10-01T01:28:01.102Z,1006.27
2022-10-01T01:29:01.043Z,1006.29
2022-10-01T01:30:01.040Z,1006.25
2022-10-01T01:31:01.123Z,1006.27
2022-10-01T01:32:01.037Z,1006.28
2022-10-01T01:33:01.035Z,1006.25
2022-10-01T01:34:01.037Z,1006.23
2022-10-01T01:35:01.030Z,1006.25
2022-10-01T01:36:01.033Z,1006.21
2022-10-01T01:37:01.030Z,1006.18
2022-10-01T01:38:01.028Z,1006.22
2022-10-01T01:39:01.029Z,1006.22
2022-10-01T01:40:01.037Z,1006.21
2022-10-01T01:41:01.030Z,1006.22
2022-10-01T01:42:01.025Z,1006.22
2022-10-01T01:43:01.020Z,1006.22
2022-10-01T01:44:01.022Z,1006.22
2022-10-01T01:45:01.022Z,1006.23
2022-10-01T01:46:01.098Z,1006.15
2022-10-01T01:47:01.036Z,1006.23
2022-10-01T01:48:01.016Z,1006.22
2022-10-01T01:49:01.011Z,1006.26
2022-10-01T01:50:01.015Z,1006.24
2022-10-01T01:51:01.014Z,1006.17
2022-10-01T01:52:01.014Z,1006.17
2022-10-01T01:53:01.011Z,1006.14
2022-10-01T01:54:01.013Z,1006.13
2022-10-01T01:55:01.003Z,1006.09
2022-10-01T01:56:00.999Z,1006.10
2022-10-01T01:57:00.999Z,1006.11
2022-10-01T01:58:01.000Z,1006.06
2022-10-01T01:59:01.000Z,1006.05
2022-10-01T02:00:00.997Z,1006.07
2022-10-01T02:01:00.993Z,1006.07
2022-10-01T02:02:01.155Z,1006.04
2022-10-01T02:03:01.063Z,1006.01
2022-10-01T02:04:01.033Z,1006.00
2022-10-01T02:05:00.988Z,1005.98
2022-10-01T02:06:00.992Z,1006.00
2022-10-01T02:07:00.987Z,1005.95
2022-10-01T02:08:00.983Z,1005.94
2022-10-01T02:09:00.986Z,1005.89
2022-10-01T02:10:00.978Z,1005.87
2022-10-01T02:11:00.983Z,1005.89
2022-10-01T02:12:00.980Z,1005.89
2022-10-01T02:13:00.980Z,1005.92
2022-10-01T02:14:00.975Z,1005.85
2022-10-01T02:15:00.977Z,1005.85
2022-10-01T02:16:01.038Z,1005.84
2022-10-01T02:17:00.970Z,1005.83
2022-10-01T02:18:00.969Z,1005.80
2022-10-01T02:19:00.990Z,1005.84
2022-10-01T02:20:00.961Z,1005.80
2022-10-01T02:21:00.971Z,1005.83
2022-10-01T02:22:00.962Z,1005.80
2022-10-01T02:23:00.961Z,1005.83
2022-10-01T02:24:00.962Z,1005.80
2022-10-01T02:25:00.958Z,1005.83
2022-10-01T02:26:00.958Z,1005.85
2022-10-01T02:27:00.955Z,1005.83
2022-10-01T02:28:01.082Z,1005.91
2022-10-01T02:29:00.950Z,1005.87
2022-10-01T02:30:00.952Z,1005.95
2022-10-01T02:31:00.992Z,1005.94
2022-10-01T02:32:00.948Z,1005.93
2022-10-01T02:33:00.946Z,1005.93
2022-10-01T02:34:00.947Z,1005.89
2022-10-01T02:35:00.975Z,1005.88
2022-10-01T02:36:00.943Z,1005.89
2022-10-01T02:37:00.952Z,1005.89
2022-10-01T02:38:00.938Z,1005.92
2022-10-01T02:39:00.941Z,1005.93
2022-10-01T02:40:00.935Z,1005.91
2022-10-01T02:41:00.939Z,1005.91
2022-10-01T02:42:00.933Z,1005.95
2022-10-01T02:43:00.932Z,1005.94
2022-10-01T02:44:00.930Z,1005.90
2022-10-01T02:45:00.939Z,1005.89
2022-10-01T02:46:00.977Z,1005.88
2022-10-01T02:47:00.929Z,1005.86
2022-10-01T02:48:00.923Z,1005.87
2022-10-01T02:49:00.919Z,1005.90
2022-10-01T02:50:00.920Z,1005.90
2022-10-01T02:51:00.939Z,1005.90
2022-10-01T02:52:00.919Z,1005.94
2022-10-01T02:53:00.917Z,1005.94
2022-10-01T02:54:00.909Z,1005.89
2022-10-01T02:55:00.919Z,1005.87
2022-10-01T02:56:00.908Z,1005.86
2022-10-01T02:57:00.910Z,1005.86
2022-10-01T02:58:00.905Z,1005.85
2022-10-01T02:59:00.908Z,1005.82
2022-10-01T03:00:00.906Z,1005.81
2022-10-01T03:01:00.902Z,1005.81
2022-10-01T03:02:01.079Z,1005.79
2022-10-01T03:03:00.938Z,1005.79
2022-10-01T03:04:00.897Z,1005.79
2022-10-01T03:05:00.896Z,1005.77
2022-10-01T03:06:00.898Z,1005.76
2022-10-01T03:07:00.920Z,1005.75
2022-10-01T03:08:00.895Z,1005.79
2022-10-01T03:09:00.892Z,1005.78
2022-10-01T03:10:00.890Z,1005.79
2022-10-01T03:11:00.891Z,1005.75
2022-10-01T03:12:00.886Z,1005.71
2022-10-01T03:13:00.884Z,1005.71
2022-10-01T03:14:00.890Z,1005.69
2022-10-01T03:15:00.883Z,1005.70
2022-10-01T03:16:00.911Z,1005.70
2022-10-01T03:17:00.878Z,1005.69
2022-10-01T03:18:00.875Z,1005.65
2022-10-01T03:19:00.877Z,1005.63
2022-10-01T03:20:00.871Z,1005.59
2022-10-01T03:21:00.871Z,1005.58
2022-10-01T03:22:00.868Z,1005.63
2022-10-01T03:23:00.889Z,1005.60
2022-10-01T03:24:00.865Z,1005.58
2022-10-01T03:25:00.865Z,1005.55
2022-10-01T03:26:00.868Z,1005.55
2022-10-01T03:27:00.861Z,1005.52
2022-10-01T03:28:00.939Z,1005.52
2022-10-01T03:29:00.857Z,1005.46
2022-10-01T03:30:00.860Z,1005.46
2022-10-01T03:31:00.909Z,1005.42
2022-10-01T03:32:00.854Z,1005.39
2022-10-01T03:33:00.854Z,1005.44
2022-10-01T03:34:00.847Z,1005.43
2022-10-01T03:35:00.873Z,1005.41
2022-10-01T03:36:00.846Z,1005.37
2022-10-01T03:37:00.844Z,1005.39
2022-10-01T03:38:00.847Z,1005.37
2022-10-01T03:39:00.866Z,1005.38
2022-10-01T03:40:00.841Z,1005.34
2022-10-01T03:41:00.843Z,1005.37
2022-10-01T03:42:00.838Z,1005.36
2022-10-01T03:43:00.841Z,1005.35
2022-10-01T03:44:00.949Z,1005.34
2022-10-01T03:45:00.841Z,1005.33
2022-10-01T03:46:00.913Z,1005.35
2022-10-01T03:47:00.831Z,1005.33
2022-10-01T03:48:00.833Z,1005.32
2022-10-01T03:49:00.842Z,1005.27
2022-10-01T03:50:00.825Z,1005.29
2022-10-01T03:51:00.826Z,1005.30
2022-10-01T03:52:00.821Z,1005.30
2022-10-01T03:53:00.822Z,1005.26
2022-10-01T03:54:00.827Z,1005.25
2022-10-01T03:55:00.841Z,1005.24
2022-10-01T03:56:00.819Z,1005.24
2022-10-01T03:57:00.818Z,1005.22
2022-10-01T03:58:00.818Z,1005.26
2022-10-01T03:59:00.812Z,1005.23
2022-10-01T04:00:00.811Z,1005.20
2022-10-01T04:01:00.813Z,1005.18
2022-10-01T04:02:00.933Z,1005.22
2022-10-01T04:03:00.880Z,1005.16
2022-10-01T04:04:00.810Z,1005.21
2022-10-01T04:05:00.805Z,1005.21
2022-10-01T04:06:00.803Z,1005.16
2022-10-01T04:07:00.808Z,1005.16
2022-10-01T04:08:00.801Z,1005.18
2022-10-01T04:09:00.805Z,1005.15
2022-10-01T04:10:00.798Z,1005.17
2022-10-01T04:11:00.815Z,1005.15
2022-10-01T04:12:00.797Z,1005.15
2022-10-01T04:13:00.793Z,1005.14
2022-10-01T04:14:00.795Z,1005.14
2022-10-01T04:15:00.792Z,1005.12
2022-10-01T04:16:00.839Z,1005.12
2022-10-01T04:17:00.787Z,1005.13
2022-10-01T04:18:00.783Z,1005.12
2022-10-01T04:19:00.786Z,1005.13
2022-10-01T04:20:00.782Z,1005.14
2022-10-01T04:21:00.780Z,1005.13
2022-10-01T04:22:00.781Z,1005.11
2022-10-01T04:23:00.781Z,1005.11
2022-10-01T04:24:00.779Z,1005.08
2022-10-01T04:25:00.781Z,1005.06
2022-10-01T04:26:00.774Z,1005.05
2022-10-01T04:27:00.796Z,1005.07
2022-10-01T04:28:00.845Z,1004.99
2022-10-01T04:29:00.769Z,1005.01
2022-10-01T04:30:00.767Z,1004.96
2022-10-01T04:31:00.766Z,1004.99
2022-10-01T04:32:00.819Z,1004.96
2022-10-01T04:33:00.770Z,1004.97
2022-10-01T04:34:00.758Z,1004.96
2022-10-01T04:35:00.761Z,1004.93
2022-10-01T04:36:00.765Z,1004.95
2022-10-01T04:37:00.761Z,1004.98
2022-10-01T04:38:00.756Z,1004.95
2022-10-01T04:39:02.567Z,1004.99
2022-10-01T04:40:00.755Z,1004.98
2022-10-01T04:41:00.751Z,1005.00
2022-10-01T04:42:00.749Z,1004.98
2022-10-01T04:43:00.777Z,1004.97
2022-10-01T04:44:00.808Z,1005.00
2022-10-01T04:45:00.751Z,1004.98
2022-10-01T04:46:00.743Z,1005.03
2022-10-01T04:47:00.829Z,1005.00
2022-10-01T04:48:00.743Z,1005.01
2022-10-01T04:49:00.740Z,1005.01
2022-10-01T04:50:00.739Z,1005.01
2022-10-01T04:51:00.739Z,1004.99
2022-10-01T04:52:00.735Z,1005.02
2022-10-01T04:53:00.741Z,1004.98
2022-10-01T04:54:00.730Z,1005.06
2022-10-01T04:55:00.733Z,1005.01
2022-10-01T04:56:00.730Z,1005.04
2022-10-01T04:57:00.735Z,1005.05
2022-10-01T04:58:00.729Z,1005.01
2022-10-01T04:59:00.746Z,1005.03
2022-10-01T05:00:00.725Z,1005.00
2022-10-01T05:01:02.156Z,1004.96
2022-10-01T05:02:00.809Z,1004.90
2022-10-01T05:03:00.727Z,1004.91
2022-10-01T05:04:00.721Z,1004.87
2022-10-01T05:05:00.724Z,1004.84
2022-10-01T05:06:00.717Z,1004.86
2022-10-01T05:07:00.716Z,1004.80
2022-10-01T05:08:00.715Z,1004.81
2022-10-01T05:09:00.715Z,1004.80
2022-10-01T05:10:00.714Z,1004.80
2022-10-01T05:11:00.713Z,1004.77
2022-10-01T05:12:00.710Z,1004.80
2022-10-01T05:13:00.707Z,1004.78
2022-10-01T05:14:00.703Z,1004.81
2022-10-01T05:15:00.728Z,1004.82
2022-10-01T05:16:00.754Z,1004.77
2022-10-01T05:17:00.700Z,1004.81
2022-10-01T05:18:00.706Z,1004.78
2022-10-01T05:19:00.698Z,1004.80
2022-10-01T05:20:00.699Z,1004.75
2022-10-01T05:21:00.693Z,1004.78
2022-10-01T05:22:00.696Z,1004.78
2022-10-01T05:23:00.694Z,1004.76
2022-10-01T05:24:00.695Z,1004.76
2022-10-01T05:25:00.689Z,1004.80
2022-10-01T05:26:00.688Z,1004.74
2022-10-01T05:27:00.686Z,1004.77
2022-10-01T05:28:00.754Z,1004.75
2022-10-01T05:29:00.685Z,1004.77
2022-10-01T05:30:00.690Z,1004.80
2022-10-01T05:31:00.871Z,1004.76
2022-10-01T05:32:00.738Z,1004.76
2022-10-01T05:33:00.683Z,1004.81
2022-10-01T05:34:00.680Z,1004.77
2022-10-01T05:35:00.687Z,1004.78
2022-10-01T05:36:00.676Z,1004.78
2022-10-01T05:37:00.673Z,1004.79
2022-10-01T05:38:00.683Z,1004.78
2022-10-01T05:39:00.670Z,1004.72
2022-10-01T05:40:00.676Z,1004.75
2022-10-01T05:41:00.667Z,1004.76
2022-10-01T05:42:05.995Z,1004.76
2022-10-01T05:43:00.668Z,1004.73
2022-10-01T05:44:00.666Z,1004.74
2022-10-01T05:45:00.661Z,1004.70
2022-10-01T05:46:00.744Z,1004.68
2022-10-01T05:47:00.681Z,1004.70
2022-10-01T05:48:00.660Z,1004.64
2022-10-01T05:49:00.656Z,1004.64
2022-10-01T05:50:00.654Z,1004.58
2022-10-01T05:51:00.656Z,1004.61
2022-10-01T05:52:00.655Z,1004.60
2022-10-01T05:53:00.654Z,1004.55
2022-10-01T05:54:00.654Z,1004.56
2022-10-01T05:55:00.653Z,1004.57
2022-10-01T05:56:00.648Z,1004.54
2022-10-01T05:57:00.648Z,1004.54
2022-10-01T05:58:00.647Z,1004.52
2022-10-01T05:59:00.645Z,1004.53
2022-10-01T06:00:00.646Z,1004.54
2022-10-01T06:01:00.640Z,1004.52
2022-10-01T06:02:00.764Z,1004.54
2022-10-01T06:03:00.847Z,1004.53
2022-10-01T06:04:00.640Z,1004.47
2022-10-01T06:05:00.634Z,1004.48
2022-10-01T06:06:00.633Z,1004.48
2022-10-01T06:07:00.636Z,1004.44
2022-10-01T06:08:00.635Z,1004.41
2022-10-01T06:09:00.632Z,1004.45
2022-10-01T06:10:00.627Z,1004.42
2022-10-01T06:11:00.625Z,1004.32
2022-10-01T06:12:00.626Z,1004.35
2022-10-01T06:13:00.626Z,1004.30
2022-10-01T06:14:00.622Z,1004.29
2022-10-01T06:15:00.621Z,1004.26
2022-10-01T06:16:00.708Z,1004.26
2022-10-01T06:17:00.618Z,1004.31
2022-10-01T06:18:00.614Z,1004.23
2022-10-01T06:19:00.643Z,1004.24
2022-10-01T06:20:00.614Z,1004.20
2022-10-01T06:21:00.616Z,1004.20
2022-10-01T06:22:00.617Z,1004.22
2022-10-01T06:23:00.612Z,1004.18
2022-10-01T06:24:00.611Z,1004.17
2022-10-01T06:25:00.607Z,1004.18
2022-10-01T06:26:00.605Z,1004.12
2022-10-01T06:27:00.607Z,1004.09
2022-10-01T06:28:00.688Z,1004.09
2022-10-01T06:29:00.602Z,1004.05
2022-10-01T06:30:00.602Z,1004.04
2022-10-01T06:31:00.602Z,1003.98
2022-10-01T06:32:00.719Z,1003.96
2022-10-01T06:33:00.601Z,1003.98
2022-10-01T06:34:00.598Z,1003.97
2022-10-01T06:35:00.625Z,1003.90
2022-10-01T06:36:00.595Z,1003.90
2022-10-01T06:37:00.596Z,1003.95
2022-10-01T06:38:00.592Z,1003.93
2022-10-01T06:39:00.594Z,1003.93
2022-10-01T06:40:00.593Z,1003.94
2022-10-01T06:41:00.588Z,1003.97
2022-10-01T06:42:00.592Z,1003.93
2022-10-01T06:43:00.591Z,1003.94
2022-10-01T06:44:00.589Z,1003.96
2022-10-01T06:45:00.585Z,1003.88
2022-10-01T06:46:00.648Z,1003.90
2022-10-01T06:47:00.581Z,1003.96
2022-10-01T06:48:00.588Z,1003.97
2022-10-01T06:49:00.580Z,1003.91
2022-10-01T06:50:00.580Z,1003.93
2022-10-01T06:51:00.605Z,1003.88
2022-10-01T06:52:00.582Z,1003.86
2022-10-01T06:53:00.575Z,1003.95
2022-10-01T06:54:00.574Z,1003.87
2022-10-01T06:55:00.574Z,1003.83
2022-10-01T06:56:00.574Z,1003.85
2022-10-01T06:57:00.575Z,1003.92
2022-10-01T06:58:00.571Z,1003.91
2022-10-01T06:59:00.568Z,1003.88
2022-10-01T07:00:00.573Z,1003.86
2022-10-01T07:01:00.673Z,1003.92
2022-10-01T07:02:00.634Z,1003.85
2022-10-01T07:03:00.570Z,1003.84
2022-10-01T07:04:00.566Z,1003.83
2022-10-01T07:05:00.564Z,1003.82
2022-10-01T07:06:00.564Z,1003.83
2022-10-01T07:07:00.578Z,1003.76
2022-10-01T07:08:00.563Z,1003.72
2022-10-01T07:09:00.558Z,1003.75
2022-10-01T07:10:00.559Z,1003.75
2022-10-01T07:11:00.553Z,1003.73
2022-10-01T07:12:00.558Z,1003.63
2022-10-01T07:13:00.555Z,1003.67
2022-10-01T07:14:00.556Z,1003.63
2022-10-01T07:15:00.554Z,1003.63
2022-10-01T07:16:00.606Z,1003.63
2022-10-01T07:17:00.555Z,1003.63
2022-10-01T07:18:00.547Z,1003.61
2022-10-01T07:19:00.549Z,1003.56
2022-10-01T07:20:00.549Z,1003.57
2022-10-01T07:21:00.544Z,1003.55
2022-10-01T07:22:00.545Z,1003.48
2022-10-01T07:23:00.563Z,1003.50
2022-10-01T07:24:00.546Z,1003.51
2022-10-01T07:25:00.544Z,1003.49
2022-10-01T07:26:00.537Z,1003.55
2022-10-01T07:27:05.053Z,1003.45
2022-10-01T07:28:00.589Z,1003.40
2022-10-01T07:29:00.552Z,1003.40
2022-10-01T07:30:00.535Z,1003.33
2022-10-01T07:31:00.536Z,1003.43
2022-10-01T07:32:00.557Z,1003.38
2022-10-01T07:33:00.530Z,1003.41
2022-10-01T07:34:00.540Z,1003.39
2022-10-01T07:35:00.531Z,1003.45
2022-10-01T07:36:00.534Z,1003.44
2022-10-01T07:37:00.528Z,1003.36
2022-10-01T07:38:00.526Z,1003.38
2022-10-01T07:39:00.548Z,1003.39
2022-10-01T07:40:04.241Z,1003.28
2022-10-01T07:41:00.524Z,1003.30
2022-10-01T07:42:00.524Z,1003.29
2022-10-01T07:43:00.522Z,1003.29
2022-10-01T07:44:00.521Z,1003.28
2022-10-01T07:45:00.525Z,1003.30
2022-10-01T07:46:00.587Z,1003.27
2022-10-01T07:47:00.518Z,1003.28
2022-10-01T07:48:00.524Z,1003.22
2022-10-01T07:49:00.521Z,1003.20
2022-10-01T07:50:00.517Z,1003.20
2022-10-01T07:51:00.522Z,1003.23
2022-10-01T07:52:00.516Z,1003.12
2022-10-01T07:53:00.514Z,1003.15
2022-10-01T07:54:00.513Z,1003.15
2022-10-01T07:55:00.541Z,1003.09
2022-10-01T07:56:00.520Z,1003.12
2022-10-01T07:57:00.514Z,1003.09
2022-10-01T07:58:00.516Z,1003.12
2022-10-01T07:59:00.513Z,1003.14
2022-10-01T08:00:00.509Z,1003.09
2022-10-01T08:01:00.601Z,1003.10
2022-10-01T08:02:00.535Z,1003.01
2022-10-01T08:03:00.505Z,1003.10
2022-10-01T08:04:00.503Z,1003.03
2022-10-01T08:05:00.499Z,1003.03
2022-10-01T08:06:00.500Z,1003.01
2022-10-01T08:07:00.501Z,1003.00
2022-10-01T08:08:00.496Z,1003.00
2022-10-01T08:09:00.497Z,1002.99
2022-10-01T08:10:00.499Z,1002.94
2022-10-01T08:11:00.518Z,1002.94
2022-10-01T08:12:00.496Z,1002.91
2022-10-01T08:13:00.490Z,1002.86
2022-10-01T08:14:00.497Z,1002.86
2022-10-01T08:15:00.503Z,1002.86
2022-10-01T08:16:00.493Z,1002.85
2022-10-01T08:17:00.591Z,1002.84
2022-10-01T08:18:00.490Z,1002.82
2022-10-01T08:19:00.490Z,1002.84
2022-10-01T08:20:00.487Z,1002.75
2022-10-01T08:21:00.488Z,1002.78
2022-10-01T08:22:00.488Z,1002.77
2022-10-01T08:23:00.484Z,1002.80
2022-10-01T08:24:00.486Z,1002.70
2022-10-01T08:25:00.487Z,1002.71
2022-10-01T08:26:00.491Z,1002.69
2022-10-01T08:27:00.502Z,1002.63
2022-10-01T08:28:00.600Z,1002.60
2022-10-01T08:29:00.483Z,1002.61
2022-10-01T08:30:00.479Z,1002.67
2022-10-01T08:31:00.480Z,1002.65
2022-10-01T08:32:00.530Z,1002.64
2022-10-01T08:33:00.478Z,1002.64
2022-10-01T08:34:00.475Z,1002.64
2022-10-01T08:35:00.473Z,1002.65
2022-10-01T08:36:00.476Z,1002.70
2022-10-01T08:37:00.474Z,1002.64
2022-10-01T08:38:00.473Z,1002.81
2022-10-01T08:39:00.476Z,1002.63
2022-10-01T08:40:00.483Z,1002.67
2022-10-01T08:41:00.471Z,1002.65
2022-10-01T08:42:00.471Z,1002.61
2022-10-01T08:43:00.488Z,1002.59
2022-10-01T08:44:00.476Z,1002.56
2022-10-01T08:45:00.471Z,1002.60
2022-10-01T08:46:00.576Z,1002.65
2022-10-01T08:47:00.465Z,1002.61
2022-10-01T08:48:00.467Z,1002.63
2022-10-01T08:49:00.471Z,1002.61
2022-10-01T08:50:00.464Z,1002.69
2022-10-01T08:51:00.464Z,1002.62
2022-10-01T08:52:00.463Z,1002.55
2022-10-01T08:53:00.460Z,1002.55
2022-10-01T08:54:00.462Z,1002.50
2022-10-01T08:55:00.463Z,1002.47
2022-10-01T08:56:00.470Z,1002.51
2022-10-01T08:57:00.460Z,1002.51
2022-10-01T08:58:00.457Z,1002.50
2022-10-01T08:59:00.480Z,1002.52
2022-10-01T09:00:00.461Z,1002.51
2022-10-01T09:01:00.627Z,1002.48
2022-10-01T09:02:00.456Z,1002.54
2022-10-01T09:03:00.463Z,1002.51
2022-10-01T09:04:00.595Z,1002.51
2022-10-01T09:05:01.808Z,1002.55
2022-10-01T09:06:00.454Z,1002.56
2022-10-01T09:07:00.455Z,1002.52
2022-10-01T09:08:00.453Z,1002.49
2022-10-01T09:09:00.451Z,1002.49
2022-10-01T09:10:00.457Z,1002.50
2022-10-01T09:11:00.454Z,1002.41
2022-10-01T09:12:00.449Z,1002.45
2022-10-01T09:13:00.449Z,1002.37
2022-10-01T09:14:00.451Z,1002.33
2022-10-01T09:15:00.472Z,1002.37
2022-10-01T09:16:00.490Z,1002.32
2022-10-01T09:17:00.451Z,1002.32
2022-10-01T09:18:00.447Z,1002.40
2022-10-01T09:19:00.452Z,1002.33
2022-10-01T09:20:00.446Z,1002.32
2022-10-01T09:21:00.446Z,1002.30
2022-10-01T09:22:00.450Z,1002.29
2022-10-01T09:23:00.444Z,1002.29
2022-10-01T09:24:00.444Z,1002.28
2022-10-01T09:25:00.451Z,1002.24
2022-10-01T09:26:00.446Z,1002.26
2022-10-01T09:27:00.444Z,1002.17
2022-10-01T09:28:00.488Z,1002.15
2022-10-01T09:29:00.446Z,1002.04
2022-10-01T09:30:00.448Z,1002.01
2022-10-01T09:31:00.464Z,1002.10
2022-10-01T09:32:00.524Z,1002.02
2022-10-01T09:33:00.446Z,1002.10
2022-10-01T09:34:00.444Z,1002.08
2022-10-01T09:35:04.255Z,1002.01
2022-10-01T09:36:00.441Z,1002.08
2022-10-01T09:37:00.440Z,1002.09
2022-10-01T09:38:00.440Z,1002.05
2022-10-01T09:39:00.438Z,1002.04
2022-10-01T09:40:00.437Z,1002.00
2022-10-01T09:41:00.434Z,1001.87
2022-10-01T09:42:00.438Z,1001.94
2022-10-01T09:43:00.441Z,1001.82
2022-10-01T09:44:00.441Z,1001.79
2022-10-01T09:45:00.444Z,1001.84
2022-10-01T09:46:00.510Z,1001.85
2022-10-01T09:47:00.457Z,1001.91
2022-10-01T09:48:00.437Z,1001.80
2022-10-01T09:49:00.436Z,1001.73
2022-10-01T09:50:00.436Z,1001.70
2022-10-01T09:51:00.435Z,1001.68
2022-10-01T09:52:00.436Z,1001.64
2022-10-01T09:53:00.442Z,1001.64
2022-10-01T09:54:00.439Z,1001.60
2022-10-01T09:55:00.442Z,1001.64
2022-10-01T09:56:00.435Z,1001.67
2022-10-01T09:57:00.434Z,1001.54
2022-10-01T09:58:00.440Z,1001.64
2022-10-01T09:59:00.440Z,1001.61
2022-10-01T10:00:00.432Z,1001.81
2022-10-01T10:01:00.430Z,1002.03
2022-10-01T10:02:00.573Z,1001.67
2022-10-01T10:03:00.606Z,1001.81
2022-10-01T10:04:00.457Z,1001.77
2022-10-01T10:05:00.444Z,1001.68
2022-10-01T10:06:00.433Z,1001.61
2022-10-01T10:07:00.447Z,1001.53
2022-10-01T10:08:00.434Z,1001.51
2022-10-01T10:09:00.425Z,1001.43
2022-10-01T10:10:00.431Z,1001.52
2022-10-01T10:11:00.438Z,1001.52
2022-10-01T10:12:00.431Z,1001.45
2022-10-01T10:13:00.429Z,1001.38
2022-10-01T10:14:00.425Z,1001.41
2022-10-01T10:15:00.431Z,1001.49
2022-10-01T10:16:00.653Z,1001.42
2022-10-01T10:17:00.427Z,1001.37
2022-10-01T10:18:00.428Z,1001.30
2022-10-01T10:19:00.444Z,1001.31
2022-10-01T10:20:00.431Z,1001.34
2022-10-01T10:21:00.425Z,1001.29
2022-10-01T10:22:00.856Z,1001.37
2022-10-01T10:23:00.427Z,1001.30
2022-10-01T10:24:00.422Z,1001.24
2022-10-01T10:25:00.423Z,1001.28
2022-10-01T10:26:00.423Z,1001.27
2022-10-01T10:27:00.426Z,1001.32
2022-10-01T10:28:00.473Z,1001.30
2022-10-01T10:29:00.418Z,1001.23
2022-10-01T10:30:00.423Z,1001.30
2022-10-01T10:31:00.516Z,1001.26
2022-10-01T10:32:00.517Z,1001.21
2022-10-01T10:33:00.414Z,1001.28
2022-10-01T10:34:00.416Z,1001.19
2022-10-01T10:35:03.071Z,1001.22
2022-10-01T10:36:00.414Z,1001.25
2022-10-01T10:37:00.422Z,1001.33
2022-10-01T10:38:00.432Z,1001.24
2022-10-01T10:39:00.429Z,1001.23
2022-10-01T10:40:00.417Z,1001.27
2022-10-01T10:41:00.418Z,1001.38
2022-10-01T10:42:00.414Z,1001.23
2022-10-01T10:43:00.418Z,1001.26
2022-10-01T10:44:00.414Z,1001.10
2022-10-01T10:45:00.411Z,1001.28
2022-10-01T10:46:00.494Z,1001.19
2022-10-01T10:47:00.419Z,1001.21
2022-10-01T10:48:00.406Z,1001.23
2022-10-01T10:49:00.409Z,1001.23
2022-10-01T10:50:00.458Z,1001.31
2022-10-01T10:51:00.429Z,1001.16
2022-10-01T10:52:00.411Z,1001.15
2022-10-01T10:53:00.419Z,1001.25
2022-10-01T10:54:00.405Z,1001.16
2022-10-01T10:55:00.403Z,1001.15
2022-10-01T10:56:00.399Z,1001.11
2022-10-01T10:57:00.404Z,1001.25
2022-10-01T10:58:04.460Z,1001.06
2022-10-01T10:59:00.399Z,1001.24
2022-10-01T11:00:00.401Z,1001.23
2022-10-01T11:01:00.410Z,1001.16
2022-10-01T11:02:00.499Z,1001.18
2022-10-01T11:03:00.400Z,1001.13
2022-10-01T11:04:00.407Z,1001.18
2022-10-01T11:05:00.397Z,1001.14
2022-10-01T11:06:00.404Z,1001.18
2022-10-01T11:07:00.411Z,1001.00
2022-10-01T11:08:00.395Z,1001.01
2022-10-01T11:09:00.394Z,1001.05
2022-10-01T11:10:00.387Z,1000.98
2022-10-01T11:11:00.393Z,1001.00
2022-10-01T11:12:00.386Z,1000.98
2022-10-01T11:13:00.391Z,1001.06
2022-10-01T11:14:00.384Z,1001.01
2022-10-01T11:15:00.392Z,1001.01
2022-10-01T11:16:00.515Z,1001.02
2022-10-01T11:17:00.406Z,1001.07
2022-10-01T11:18:00.386Z,1001.06
2022-10-01T11:19:00.381Z,1001.04
2022-10-01T11:20:00.389Z,1001.12
2022-10-01T11:21:00.381Z,1001.05
2022-10-01T11:22:00.380Z,1000.99
2022-10-01T11:23:00.411Z,1001.05
2022-10-01T11:24:00.379Z,1001.05
2022-10-01T11:25:00.379Z,1001.00
2022-10-01T11:26:00.377Z,1001.04
2022-10-01T11:27:00.374Z,1000.98
2022-10-01T11:28:00.420Z,1000.98
2022-10-01T11:29:00.370Z,1000.97
2022-10-01T11:30:00.370Z,1000.90
2022-10-01T11:31:00.407Z,1000.98
2022-10-01T11:32:00.369Z,1000.92
2022-10-01T11:33:00.370Z,1000.93
2022-10-01T11:34:00.364Z,1001.00
2022-10-01T11:35:00.367Z,1000.86
2022-10-01T11:36:00.689Z,1000.87
2022-10-01T11:37:00.391Z,1000.88
2022-10-01T11:38:00.364Z,1000.90
2022-10-01T11:39:00.380Z,1000.86
2022-10-01T11:40:00.362Z,1000.84
2022-10-01T11:41:00.359Z,1000.83
2022-10-01T11:42:00.355Z,1000.78
2022-10-01T11:43:00.361Z,1000.92
2022-10-01T11:44:00.359Z,1000.77
2022-10-01T11:45:00.889Z,1000.73
2022-10-01T11:46:00.402Z,1000.75
2022-10-01T11:47:00.351Z,1000.73
2022-10-01T11:48:00.352Z,1000.67
2022-10-01T11:49:00.352Z,1000.70
2022-10-01T11:50:00.403Z,1000.66
2022-10-01T11:51:00.350Z,1000.73
2022-10-01T11:52:00.349Z,1000.67
2022-10-01T11:53:00.345Z,1000.68
2022-10-01T11:54:00.342Z,1000.68
2022-10-01T11:55:00.370Z,1000.70
2022-10-01T11:56:00.341Z,1000.65
2022-10-01T11:57:00.351Z,1000.64
2022-10-01T11:58:00.339Z,1000.67
2022-10-01T11:59:00.337Z,1000.63
2022-10-01T12:00:00.358Z,1000.61
2022-10-01T12:01:00.337Z,1000.70
2022-10-01T12:02:00.371Z,1000.65
2022-10-01T12:03:00.341Z,1000.67
2022-10-01T12:04:00.331Z,1000.66
2022-10-01T12:05:00.335Z,1000.63